createdAt,value
2018-04-17T00:02:01.776Z,24.40
2018-04-17T00:04:35.059Z,33.33
2018-04-17T00:07:01.355Z,29.20
2018-04-17T00:09:27.609Z,29.37
2018-04-17T00:11:53.882Z,39.33
2018-04-17T00:14:20.181Z,27.90
2018-04-17T00:16:46.497Z,29.97
2018-04-17T00:19:12.860Z,34.33
2018-04-17T00:21:39.131Z,35.00
2018-04-17T00:24:05.490Z,29.60
2018-04-17T00:26:32.080Z,33.40
2018-04-17T00:28:58.900Z,36.23
2018-04-17T00:31:25.190Z,36.30
2018-04-17T00:33:51.464Z,52.70
2018-04-17T00:36:17.765Z,48.73
2018-04-17T00:38:44.069Z,49.80
2018-04-17T00:41:10.347Z,50.17
2018-04-17T00:43:36.647Z,53.30
2018-04-17T00:46:02.962Z,58.93
2018-04-17T00:48:29.979Z,50.17
2018-04-17T00:50:56.338Z,57.13
2018-04-17T00:53:42.093Z,49.70
2018-04-17T00:56:08.407Z,60.77
2018-04-17T00:58:34.682Z,57.57
2018-04-17T01:01:01.766Z,60.87
2018-04-17T01:03:28.041Z,59.80
2018-04-17T01:05:54.406Z,65.53
2018-04-17T01:08:20.725Z,60.47
2018-04-17T01:10:47.731Z,60.97
2018-04-17T01:13:14.057Z,61.33
2018-04-17T01:15:41.151Z,58.80
2018-04-17T01:18:08.176Z,61.10
2018-04-17T01:20:34.476Z,64.77
2018-04-17T01:23:00.745Z,60.30
2018-04-17T01:25:27.018Z,78.83
2018-04-17T01:27:53.319Z,74.60
2018-04-17T01:30:20.363Z,67.83
2018-04-17T01:32:47.357Z,75.07
2018-04-17T01:35:13.616Z,78.07
2018-04-17T01:37:39.898Z,74.37
2018-04-17T01:40:06.203Z,78.90
2018-04-17T01:42:32.507Z,76.07
2018-04-17T01:44:58.795Z,68.20
2018-04-17T01:47:25.114Z,75.57
2018-04-17T01:49:51.384Z,81.03
2018-04-17T01:52:17.674Z,79.07
2018-04-17T01:54:43.996Z,74.20
2018-04-17T01:57:10.349Z,76.80
2018-04-17T01:59:36.684Z,73.07
2018-04-17T02:02:02.949Z,89.23
2018-04-17T02:04:29.245Z,98.80
2018-04-17T02:06:55.524Z,80.87
2018-04-17T02:09:22.537Z,94.27
2018-04-17T02:11:48.813Z,101.67
2018-04-17T02:14:15.832Z,96.73
2018-04-17T02:16:42.112Z,82.97
2018-04-17T02:19:08.500Z,94.33
2018-04-17T02:21:34.797Z,100.63
2018-04-17T02:24:01.088Z,105.17
2018-04-17T02:26:28.155Z,107.03
2018-04-17T02:28:54.463Z,99.00
2018-04-17T02:31:21.556Z,110.70
2018-04-17T02:33:47.837Z,106.63
2018-04-17T02:36:14.866Z,109.80
2018-04-17T02:38:41.227Z,105.23
2018-04-17T02:41:08.238Z,106.37
2018-04-17T02:43:34.566Z,107.03
2018-04-17T02:46:00.857Z,106.83
2018-04-17T02:48:27.143Z,106.67
2018-04-17T02:50:53.463Z,110.20
2018-04-17T02:53:19.774Z,105.80
2018-04-17T02:55:46.077Z,100.10
2018-04-17T02:58:12.449Z,104.80
2018-04-17T03:00:40.552Z,113.77
2018-04-17T03:03:08.513Z,107.00
2018-04-17T03:05:34.846Z,109.20
2018-04-17T03:08:01.164Z,110.07
2018-04-17T03:10:27.431Z,113.63
2018-04-17T03:12:53.741Z,120.10
2018-04-17T03:15:20.774Z,115.87
2018-04-17T03:17:47.058Z,121.90
2018-04-17T03:20:13.430Z,127.67
2018-04-17T03:22:39.726Z,115.77
2018-04-17T03:25:05.982Z,116.83
2018-04-17T03:27:32.286Z,124.63
2018-04-17T03:29:58.561Z,124.60
2018-04-17T03:32:24.905Z,129.97
2018-04-17T03:34:51.208Z,119.93
2018-04-17T03:37:17.479Z,121.67
2018-04-17T03:39:43.803Z,129.80
2018-04-17T03:42:10.839Z,127.73
2018-04-17T03:44:37.237Z,118.53
2018-04-17T03:47:03.670Z,128.47
2018-04-17T03:49:29.920Z,121.90
2018-04-17T03:51:56.247Z,115.13
2018-04-17T03:54:22.664Z,107.37
2018-04-17T03:56:49.119Z,109.43
2018-04-17T03:59:15.394Z,103.60
2018-04-17T04:01:41.706Z,103.20
2018-04-17T04:04:08.788Z,112.93
2018-04-17T04:06:35.079Z,104.30
2018-04-17T04:09:02.153Z,108.73
2018-04-17T04:11:28.431Z,116.63
2018-04-17T04:13:54.796Z,124.90
2018-04-17T04:16:40.507Z,112.30
2018-04-17T04:19:25.377Z,116.50
2018-04-17T04:22:10.171Z,116.80
2018-04-17T04:24:55.036Z,116.27
2018-04-17T04:27:21.349Z,117.30
2018-04-17T04:29:47.629Z,126.13
2018-04-17T04:32:14.655Z,116.43
2018-04-17T04:34:40.951Z,121.70
2018-04-17T04:37:07.284Z,130.70
2018-04-17T04:39:34.498Z,134.10
2018-04-17T04:42:01.728Z,130.90
2018-04-17T04:44:28.253Z,137.17
2018-04-17T04:46:54.530Z,141.57
2018-04-17T04:49:20.865Z,141.97
2018-04-17T04:51:47.166Z,142.80
2018-04-17T04:54:13.439Z,139.03
2018-04-17T04:56:39.711Z,139.93
2018-04-17T04:59:06.003Z,139.93
2018-04-17T05:01:32.365Z,146.17
2018-04-17T05:03:58.706Z,136.07
2018-04-17T05:06:25.037Z,139.53
2018-04-17T05:08:51.362Z,133.17
2018-04-17T05:11:17.634Z,131.17
2018-04-17T05:13:43.957Z,128.03
2018-04-17T05:16:10.257Z,123.73
2018-04-17T05:18:36.546Z,117.50
2018-04-17T05:21:02.832Z,110.70
2018-04-17T05:23:29.104Z,114.67
2018-04-17T05:25:55.415Z,108.23
2018-04-17T05:28:22.410Z,102.40
2018-04-17T05:30:48.736Z,100.93
2018-04-17T05:33:15.044Z,95.63
2018-04-17T05:35:41.299Z,94.53
2018-04-17T05:38:07.561Z,99.83
2018-04-17T05:40:40.782Z,98.40
2018-04-17T05:43:07.084Z,94.73
2018-04-17T05:45:33.398Z,98.77
2018-04-17T05:47:59.659Z,90.13
2018-04-17T05:50:26.715Z,90.87
2018-04-17T05:52:52.965Z,83.90
2018-04-17T05:55:19.274Z,95.63
2018-04-17T05:57:46.304Z,100.80
2018-04-17T06:00:19.719Z,110.13
2018-04-17T06:02:46.013Z,99.13
2018-04-17T06:05:12.296Z,106.10
2018-04-17T06:07:38.566Z,99.23
2018-04-17T06:10:04.902Z,104.73
2018-04-17T06:12:31.199Z,106.57
2018-04-17T06:14:57.461Z,94.33
2018-04-17T06:17:23.713Z,103.17
2018-04-17T06:19:50.711Z,93.20
2018-04-17T06:22:16.968Z,100.63
2018-04-17T06:24:43.258Z,94.40
2018-04-17T06:27:09.548Z,97.87
2018-04-17T06:29:35.816Z,89.40
2018-04-17T06:32:02.156Z,86.33
2018-04-17T06:34:28.453Z,94.03
2018-04-17T06:36:55.550Z,97.60
2018-04-17T06:39:21.900Z,93.17
2018-04-17T06:41:48.283Z,99.63
2018-04-17T06:44:14.493Z,96.70
2018-04-17T06:46:41.535Z,95.17
2018-04-17T06:49:08.563Z,91.27
2018-04-17T06:51:34.833Z,89.57
2018-04-17T06:54:01.138Z,77.87
2018-04-17T06:56:27.483Z,96.47
2018-04-17T06:58:54.534Z,86.77
2018-04-17T07:01:21.585Z,85.07
2018-04-17T07:03:47.877Z,98.27
2018-04-17T07:06:14.165Z,94.33
2018-04-17T07:08:40.455Z,87.17
2018-04-17T07:11:06.775Z,95.83
2018-04-17T07:13:33.097Z,86.33
2018-04-17T07:15:59.375Z,92.83
2018-04-17T07:18:25.658Z,90.27
2018-04-17T07:20:51.943Z,98.03
2018-04-17T07:23:18.282Z,98.33
2018-04-17T07:25:44.570Z,107.27
2018-04-17T07:28:11.639Z,94.63
2018-04-17T07:30:38.036Z,85.93
2018-04-17T07:33:04.328Z,84.13
2018-04-17T07:35:30.597Z,80.17
2018-04-17T07:37:56.922Z,75.13
2018-04-17T07:40:23.245Z,75.07
2018-04-17T07:42:49.512Z,84.73
2018-04-17T07:45:16.512Z,84.60
2018-04-17T07:47:55.187Z,81.13
2018-04-17T07:50:22.255Z,82.53
2018-04-17T07:52:48.550Z,84.07
2018-04-17T07:55:15.585Z,84.80
2018-04-17T07:57:41.891Z,81.57
2018-04-17T08:00:08.176Z,82.70
2018-04-17T08:02:34.506Z,79.63
2018-04-17T08:05:00.887Z,82.77
2018-04-17T08:07:27.143Z,79.70
2018-04-17T08:09:53.436Z,86.03
2018-04-17T08:12:19.736Z,82.93
2018-04-17T08:14:45.988Z,85.90
2018-04-17T08:17:12.342Z,84.57
2018-04-17T08:19:38.608Z,80.47
2018-04-17T08:22:05.989Z,87.53
2018-04-17T08:24:32.295Z,87.37
2018-04-17T08:26:59.352Z,91.63
2018-04-17T08:29:26.366Z,85.93
2018-04-17T08:31:52.702Z,85.00
2018-04-17T08:34:19.012Z,92.70
2018-04-17T08:36:45.255Z,82.30
2018-04-17T08:39:11.679Z,88.43
2018-04-17T08:41:38.005Z,80.67
2018-04-17T08:44:04.327Z,81.63
2018-04-17T08:46:30.651Z,88.60
2018-04-17T08:48:57.017Z,76.90
2018-04-17T08:51:23.308Z,88.73
2018-04-17T08:53:50.544Z,86.23
2018-04-17T08:56:16.863Z,84.27
2018-04-17T08:58:44.047Z,83.50
2018-04-17T09:01:10.326Z,79.03
2018-04-17T09:03:36.634Z,79.17
2018-04-17T09:06:02.920Z,79.90
2018-04-17T09:08:29.188Z,80.50
2018-04-17T09:10:55.441Z,82.40
2018-04-17T09:13:21.728Z,79.60
2018-04-17T09:15:48.057Z,83.10
2018-04-17T09:18:14.367Z,79.87
2018-04-17T09:20:40.683Z,84.83
2018-04-17T09:23:07.742Z,81.47
2018-04-17T09:25:34.834Z,89.63
2018-04-17T09:28:01.225Z,85.43
2018-04-17T09:30:27.539Z,84.57
2018-04-17T09:32:54.608Z,85.87
2018-04-17T09:35:20.861Z,84.20
2018-04-17T09:37:47.133Z,84.00
2018-04-17T09:40:13.437Z,81.40
2018-04-17T09:42:39.749Z,75.20
2018-04-17T09:45:05.999Z,78.20
2018-04-17T09:47:32.452Z,62.43
2018-04-17T09:49:58.771Z,67.50
2018-04-17T09:52:25.079Z,63.60
2018-04-17T09:54:51.349Z,66.07
2018-04-17T09:57:17.721Z,72.27
2018-04-17T09:59:44.011Z,67.07
2018-04-17T10:02:12.086Z,64.60
2018-04-17T10:04:38.436Z,60.07
2018-04-17T10:07:05.498Z,61.93
2018-04-17T10:09:31.818Z,61.30
2018-04-17T10:11:58.867Z,60.03
2018-04-17T10:14:25.211Z,62.23
2018-04-17T10:16:51.586Z,64.90
2018-04-17T10:19:17.931Z,58.77
2018-04-17T10:21:44.244Z,61.27
2018-04-17T10:24:10.586Z,61.30
2018-04-17T10:26:36.925Z,58.50
2018-04-17T10:29:03.456Z,59.33
2018-04-17T10:31:30.684Z,58.10
2018-04-17T10:33:57.116Z,54.73
2018-04-17T10:36:23.430Z,62.83
2018-04-17T10:38:49.812Z,60.37
2018-04-17T10:41:16.196Z,59.63
2018-04-17T10:43:43.454Z,55.37
2018-04-17T10:46:09.788Z,63.10
2018-04-17T10:48:36.183Z,62.83
2018-04-17T10:51:02.487Z,59.60
2018-04-17T10:53:28.791Z,57.70
2018-04-17T10:55:55.150Z,55.77
2018-04-17T10:58:21.507Z,54.47
2018-04-17T11:00:49.416Z,64.57
2018-04-17T11:03:15.710Z,57.07
2018-04-17T11:05:42.008Z,58.90
2018-04-17T11:08:08.313Z,63.10
2018-04-17T11:10:34.580Z,59.67
2018-04-17T11:13:00.871Z,56.10
2018-04-17T11:15:27.143Z,59.67
2018-04-17T11:17:53.534Z,60.10
2018-04-17T11:20:19.860Z,62.00
2018-04-17T11:22:46.170Z,66.27
2018-04-17T11:25:12.563Z,60.63
2018-04-17T11:27:38.890Z,56.60
2018-04-17T11:30:05.233Z,57.80
2018-04-17T11:32:31.534Z,62.30
2018-04-17T11:34:58.676Z,52.63
2018-04-17T11:37:25.019Z,59.87
2018-04-17T11:39:51.334Z,65.67
2018-04-17T11:42:17.679Z,59.03
2018-04-17T11:44:44.023Z,58.37
2018-04-17T11:47:10.393Z,58.47
2018-04-17T11:49:36.773Z,55.90
2018-04-17T11:52:03.135Z,53.33
2018-04-17T11:54:30.312Z,55.93
2018-04-17T11:56:57.292Z,57.60
2018-04-17T11:59:23.708Z,54.50
2018-04-17T12:01:50.093Z,52.47
2018-04-17T12:04:16.411Z,47.73
2018-04-17T12:06:42.745Z,52.40
2018-04-17T12:09:09.041Z,46.17
2018-04-17T12:11:35.390Z,45.40
2018-04-17T12:14:01.767Z,49.03
2018-04-17T12:16:28.864Z,50.23
2018-04-17T12:18:55.223Z,50.63
2018-04-17T12:21:21.630Z,48.27
2018-04-17T12:23:47.928Z,50.13
2018-04-17T12:26:14.237Z,48.80
2018-04-17T12:28:40.565Z,47.50
2018-04-17T12:31:06.882Z,43.77
2018-04-17T12:33:33.293Z,42.60
2018-04-17T12:35:59.744Z,43.50
2018-04-17T12:38:26.131Z,43.40
2018-04-17T12:40:52.433Z,44.70
2018-04-17T12:43:19.475Z,40.83
2018-04-17T12:45:45.873Z,42.77
2018-04-17T12:48:12.210Z,42.30
2018-04-17T12:50:38.658Z,38.63
2018-04-17T12:53:05.067Z,44.20
2018-04-17T12:55:31.390Z,46.23
2018-04-17T12:57:57.677Z,46.57
2018-04-17T13:00:24.747Z,47.97
2018-04-17T13:02:51.114Z,43.00
2018-04-17T13:05:17.456Z,44.27
2018-04-17T13:07:45.801Z,41.20
2018-04-17T13:10:12.129Z,42.47
2018-04-17T13:12:38.431Z,41.73
2018-04-17T13:15:05.546Z,43.10
2018-04-17T13:17:31.923Z,42.33
2018-04-17T13:20:01.043Z,44.47
2018-04-17T13:22:27.411Z,43.20
2018-04-17T13:24:53.719Z,45.70
2018-04-17T13:27:20.042Z,44.40
2018-04-17T13:29:46.375Z,45.10
2018-04-17T13:32:13.453Z,46.83
2018-04-17T13:34:40.488Z,43.90
2018-04-17T13:37:06.806Z,41.60
2018-04-17T13:39:33.155Z,43.50
2018-04-17T13:41:59.479Z,43.23
2018-04-17T13:44:25.862Z,44.67
2018-04-17T13:46:52.931Z,42.27
2018-04-17T13:49:19.217Z,38.07
2018-04-17T13:51:45.509Z,41.70
2018-04-17T13:54:11.888Z,38.70
2018-04-17T13:56:38.148Z,35.60
2018-04-17T13:59:04.540Z,40.13
2018-04-17T14:01:30.847Z,40.37
2018-04-17T14:03:57.194Z,43.33
2018-04-17T14:06:23.515Z,39.37
2018-04-17T14:08:49.881Z,40.53
2018-04-17T14:11:16.900Z,38.37
2018-04-17T14:13:43.214Z,39.43
2018-04-17T14:16:09.507Z,35.93
2018-04-17T14:18:36.572Z,35.67
2018-04-17T14:21:02.902Z,33.87
2018-04-17T14:23:29.244Z,35.77
2018-04-17T14:25:55.580Z,35.33
2018-04-17T14:28:21.884Z,37.57
2018-04-17T14:30:48.183Z,36.10
2018-04-17T14:33:14.467Z,36.70
2018-04-17T14:35:40.758Z,37.50
2018-04-17T14:38:07.807Z,33.33
2018-04-17T14:40:34.851Z,34.73
2018-04-17T14:43:01.983Z,34.30
2018-04-17T14:45:28.266Z,32.97
2018-04-17T14:47:54.637Z,35.50
2018-04-17T14:50:20.938Z,35.73
2018-04-17T14:52:48.168Z,25.47
2018-04-17T14:55:14.588Z,32.00
2018-04-17T14:57:41.625Z,34.47
2018-04-17T15:00:08.705Z,31.60
2018-04-17T15:02:35.064Z,30.43
2018-04-17T15:05:01.344Z,33.60
2018-04-17T15:07:27.713Z,34.90
2018-04-17T15:09:53.965Z,29.00
2018-04-17T15:12:20.339Z,30.33
2018-04-17T15:14:47.391Z,27.27
2018-04-17T15:17:13.723Z,27.57
2018-04-17T15:19:40.739Z,26.50
2018-04-17T15:22:07.005Z,24.30
2018-04-17T15:24:33.348Z,28.87
2018-04-17T15:26:59.621Z,26.43
2018-04-17T15:29:25.915Z,27.10
2018-04-17T15:31:52.178Z,24.17
2018-04-17T15:34:18.473Z,26.83
2018-04-17T15:36:44.811Z,24.30
2018-04-17T15:39:11.100Z,26.47
2018-04-17T15:41:37.803Z,23.53
2018-04-17T15:44:04.131Z,28.83
2018-04-17T15:46:30.405Z,25.23
2018-04-17T15:48:57.482Z,25.83
2018-04-17T15:51:23.811Z,22.90
2018-04-17T15:53:50.129Z,24.90
2018-04-17T15:56:16.420Z,22.80
2018-04-17T15:58:42.731Z,20.83
2018-04-17T16:01:09.065Z,20.90
2018-04-17T16:03:35.487Z,18.40
2018-04-17T16:06:01.736Z,18.87
2018-04-17T16:08:28.021Z,18.93
2018-04-17T16:10:54.296Z,14.23
2018-04-17T16:13:20.598Z,19.97
2018-04-17T16:15:46.924Z,18.37
2018-04-17T16:18:13.189Z,17.83
2018-04-17T16:20:39.519Z,17.93
2018-04-17T16:23:05.808Z,20.37
2018-04-17T16:25:32.148Z,18.53
2018-04-17T16:27:58.418Z,17.70
2018-04-17T16:30:24.759Z,16.27
2018-04-17T16:32:51.058Z,20.23
2018-04-17T16:35:17.383Z,18.43
2018-04-17T16:37:43.718Z,20.93
2018-04-17T16:40:10.006Z,17.60
2018-04-17T16:42:37.034Z,16.03
2018-04-17T16:45:03.352Z,14.47
2018-04-17T16:47:29.597Z,14.80
2018-04-17T16:49:56.033Z,14.47
2018-04-17T16:52:23.071Z,16.70
2018-04-17T16:54:49.379Z,20.37
2018-04-17T16:57:15.661Z,16.60
2018-04-17T16:59:42.722Z,16.57
2018-04-17T17:02:09.038Z,17.70
2018-04-17T17:04:36.050Z,22.23
2018-04-17T17:07:02.462Z,21.23
2018-04-17T17:09:28.785Z,18.67
2018-04-17T17:11:55.118Z,22.87
2018-04-17T17:14:21.390Z,23.70
2018-04-17T17:16:47.746Z,24.20
2018-04-17T17:19:14.046Z,27.20
2018-04-17T17:21:40.324Z,22.63
2018-04-17T17:24:06.656Z,26.53
2018-04-17T17:26:33.045Z,37.40
2018-04-17T17:28:59.319Z,28.80
2018-04-17T17:31:25.669Z,29.17
2018-04-17T17:33:51.952Z,29.27
2018-04-17T17:36:19.038Z,31.43
2018-04-17T17:38:45.411Z,30.43
2018-04-17T17:41:11.708Z,32.40
2018-04-17T17:43:38.101Z,35.50
2018-04-17T17:46:05.117Z,36.03
2018-04-17T17:48:31.473Z,56.03
2018-04-17T17:50:58.547Z,33.33
2018-04-17T17:53:24.828Z,34.00
2018-04-17T17:55:51.142Z,31.63
2018-04-17T17:58:17.477Z,34.23
2018-04-17T18:00:43.783Z,34.13
2018-04-17T18:03:10.153Z,36.33
2018-04-17T18:05:36.465Z,33.33
2018-04-17T18:08:02.815Z,40.03
2018-04-17T18:10:30.240Z,36.17
2018-04-17T18:12:56.599Z,37.23
2018-04-17T18:15:23.063Z,36.47
2018-04-17T18:17:50.306Z,35.13
2018-04-17T18:20:17.460Z,37.17
2018-04-17T18:22:43.795Z,42.50
2018-04-17T18:25:10.955Z,34.70
2018-04-17T18:27:38.098Z,36.80
2018-04-17T18:30:05.167Z,36.17
2018-04-17T18:32:31.480Z,38.20
2018-04-17T18:34:58.552Z,36.47
2018-04-17T18:37:24.838Z,39.87
2018-04-17T18:39:51.623Z,42.37
2018-04-17T18:42:17.944Z,35.13
2018-04-17T18:44:44.380Z,41.20
2018-04-17T18:47:11.289Z,41.87
2018-04-17T18:49:37.761Z,40.57
2018-04-17T18:52:04.340Z,40.13
2018-04-17T18:54:30.738Z,45.57
2018-04-17T18:56:57.240Z,44.40
2018-04-17T18:59:24.762Z,45.47
2018-04-17T19:01:51.185Z,38.73
2018-04-17T19:04:18.009Z,40.03
2018-04-17T19:06:44.408Z,44.70
2018-04-17T19:09:10.972Z,53.00
2018-04-17T19:11:37.554Z,45.47
2018-04-17T19:14:03.935Z,46.90
2018-04-17T19:16:31.198Z,42.90
2018-04-17T19:18:57.604Z,49.07
2018-04-17T19:21:24.810Z,45.57
2018-04-17T19:23:51.334Z,48.27
2018-04-17T19:26:18.898Z,54.80
2018-04-17T19:28:45.457Z,49.47
2018-04-17T19:31:12.727Z,56.63
2018-04-17T19:33:41.316Z,49.97
2018-04-17T19:36:16.942Z,57.30
2018-04-17T19:38:43.689Z,62.20
2018-04-17T19:41:11.162Z,58.87
2018-04-17T19:43:38.924Z,61.07
2018-04-17T19:46:05.378Z,53.50
2018-04-17T19:48:32.461Z,55.03
2018-04-17T19:50:58.792Z,44.50
2018-04-17T19:53:25.234Z,44.50
2018-04-17T19:55:51.583Z,52.57
2018-04-17T19:58:18.669Z,50.60
2018-04-17T20:00:49.684Z,43.83
2018-04-17T20:03:16.053Z,48.37
2018-04-17T20:05:43.160Z,43.87
2018-04-17T20:08:09.809Z,42.87
2018-04-17T20:10:36.964Z,41.13
2018-04-17T20:13:03.283Z,48.67
2018-04-17T20:15:30.534Z,50.17
2018-04-17T20:17:56.872Z,39.70
2018-04-17T20:20:23.504Z,40.53
2018-04-17T20:22:49.799Z,44.10
2018-04-17T20:25:16.117Z,46.50
2018-04-17T20:30:15.905Z,41.47
2018-04-17T20:33:10.861Z,49.37
2018-04-17T20:35:37.363Z,45.27
2018-04-17T20:38:04.451Z,44.63
2018-04-17T20:40:30.899Z,46.00
2018-04-17T20:42:57.238Z,43.50
2018-04-17T20:45:23.563Z,45.87
2018-04-17T20:47:50.148Z,44.17
2018-04-17T20:50:16.914Z,58.13
2018-04-17T20:52:43.213Z,56.13
2018-04-17T20:55:09.611Z,52.50
2018-04-17T20:57:36.127Z,52.50
2018-04-17T21:00:02.411Z,50.80
2018-04-17T21:02:28.840Z,55.10
2018-04-17T21:04:56.117Z,47.10
2018-04-17T21:07:22.500Z,50.30
2018-04-17T21:09:48.862Z,50.63
2018-04-17T21:12:15.251Z,47.47
2018-04-17T21:14:41.548Z,40.87
2018-04-17T21:17:08.257Z,50.17
2018-04-17T21:19:34.563Z,45.80
2018-04-17T21:22:01.333Z,53.00
2018-04-17T21:24:28.395Z,44.97
2018-04-17T21:26:55.445Z,47.27
2018-04-17T21:29:22.500Z,49.27
2018-04-17T21:31:49.660Z,54.00
2018-04-17T21:34:16.896Z,46.77
2018-04-17T21:36:44.018Z,51.90
2018-04-17T21:39:10.319Z,50.97
2018-04-17T21:41:36.620Z,45.47
2018-04-17T21:44:02.907Z,47.43
2018-04-17T21:46:29.243Z,52.33
2018-04-17T21:48:55.600Z,56.63
2018-04-17T21:51:22.606Z,56.90
2018-04-17T21:53:48.972Z,50.97
2018-04-17T21:56:16.075Z,60.33
2018-04-17T21:58:42.798Z,52.63
2018-04-17T22:01:09.129Z,45.40
2018-04-17T22:03:35.807Z,51.30
2018-04-17T22:06:02.122Z,43.60
2018-04-17T22:11:32.279Z,49.40
2018-04-17T22:13:58.673Z,45.50
2018-04-17T22:16:25.024Z,48.27
2018-04-17T22:18:51.306Z,51.37
2018-04-17T22:21:18.396Z,52.90
2018-04-17T22:23:44.680Z,48.87
2018-04-17T22:26:11.740Z,49.33
2018-04-17T22:28:38.700Z,53.87
2018-04-17T22:31:04.990Z,54.70
2018-04-17T22:33:31.303Z,55.60
2018-04-17T22:35:57.577Z,60.10
2018-04-17T22:38:24.660Z,58.90
2018-04-17T22:40:50.967Z,58.60
2018-04-17T22:43:17.386Z,54.23
2018-04-17T22:45:44.428Z,53.10
2018-04-17T22:48:11.488Z,57.27
2018-04-17T22:50:38.641Z,53.13
2018-04-17T22:53:05.746Z,62.70
2018-04-17T22:55:32.066Z,52.80
2018-04-17T22:57:58.429Z,51.20
2018-04-17T23:00:25.539Z,55.10
2018-04-17T23:02:51.826Z,51.97
2018-04-17T23:05:18.887Z,53.30
2018-04-17T23:07:45.184Z,53.17
2018-04-17T23:10:12.214Z,59.20
2018-04-17T23:12:38.502Z,53.40
2018-04-17T23:15:12.001Z,55.23
2018-04-17T23:17:38.264Z,61.10
2018-04-17T23:20:04.576Z,50.10
2018-04-17T23:22:30.873Z,52.53
2018-04-17T23:24:57.155Z,57.93
2018-04-17T23:27:23.479Z,60.73
2018-04-17T23:29:49.735Z,51.63
2018-04-17T23:32:16.067Z,53.30
2018-04-17T23:34:42.394Z,59.30
2018-04-17T23:37:08.682Z,58.53
2018-04-17T23:39:34.992Z,62.30
2018-04-17T23:42:01.286Z,57.67
2018-04-17T23:44:27.608Z,56.60
2018-04-17T23:46:53.994Z,59.53
2018-04-17T23:49:20.290Z,47.93
2018-04-17T23:51:46.748Z,66.00
2018-04-17T23:54:13.780Z,60.53
2018-04-17T23:56:40.844Z,64.03
2018-04-17T23:59:07.848Z,54.60
